sensor_id;sensor_type;location;lat;lon;timestamp;P1;durP1;ratioP1;P2;durP2;ratioP2
18893;SDS011;9579;49.488;8.226;2023-08-06T00:00:47;4.35;;;3.95;;
18893;SDS011;9579;49.488;8.226;2023-08-06T00:03:34;4.22;;;3.83;;
18893;SDS011;9579;49.488;8.226;2023-08-06T00:06:23;3.97;;;3.67;;
18893;SDS011;9579;49.488;8.226;2023-08-06T00:09:10;3.85;;;3.55;;
18893;SDS011;9579;49.488;8.226;2023-08-06T00:11:58;3.75;;;3.50;;
18893;SDS011;9579;49.488;8.226;2023-08-06T00:14:49;3.78;;;3.47;;
18893;SDS011;9579;49.488;8.226;2023-08-06T00:17:36;3.70;;;3.47;;
18893;SDS011;9579;49.488;8.226;2023-08-06T00:20:24;3.60;;;3.30;;
18893;SDS011;9579;49.488;8.226;2023-08-06T00:23:12;3.30;;;3.10;;
18893;SDS011;9579;49.488;8.226;2023-08-06T00:25:59;3.70;;;3.38;;
18893;SDS011;9579;49.488;8.226;2023-08-06T00:28:46;4.03;;;3.65;;
18893;SDS011;9579;49.488;8.226;2023-08-06T00:31:33;4.05;;;3.65;;
18893;SDS011;9579;49.488;8.226;2023-08-06T00:34:20;3.83;;;3.53;;
18893;SDS011;9579;49.488;8.226;2023-08-06T00:37:07;3.83;;;3.63;;
18893;SDS011;9579;49.488;8.226;2023-08-06T00:39:55;3.83;;;3.53;;
18893;SDS011;9579;49.488;8.226;2023-08-06T00:42:42;4.18;;;3.78;;
18893;SDS011;9579;49.488;8.226;2023-08-06T00:45:31;4.50;;;4.20;;
18893;SDS011;9579;49.488;8.226;2023-08-06T00:48:22;4.20;;;3.90;;
18893;SDS011;9579;49.488;8.226;2023-08-06T00:51:09;4.25;;;3.95;;
18893;SDS011;9579;49.488;8.226;2023-08-06T00:53:57;4.85;;;4.45;;
18893;SDS011;9579;49.488;8.226;2023-08-06T00:56:46;4.30;;;4.00;;
18893;SDS011;9579;49.488;8.226;2023-08-06T00:59:33;4.50;;;4.10;;
18893;SDS011;9579;49.488;8.226;2023-08-06T01:02:21;4.20;;;3.90;;
18893;SDS011;9579;49.488;8.226;2023-08-06T01:05:08;3.97;;;3.67;;
18893;SDS011;9579;49.488;8.226;2023-08-06T01:08:00;4.43;;;3.83;;
18893;SDS011;9579;49.488;8.226;2023-08-06T01:11:00;4.00;;;3.65;;
18893;SDS011;9579;49.488;8.226;2023-08-06T01:13:57;3.95;;;3.65;;
18893;SDS011;9579;49.488;8.226;2023-08-06T01:16:48;3.50;;;3.30;;
18893;SDS011;9579;49.488;8.226;2023-08-06T01:19:37;3.85;;;3.50;;
18893;SDS011;9579;49.488;8.226;2023-08-06T01:22:25;3.42;;;3.13;;
18893;SDS011;9579;49.488;8.226;2023-08-06T01:25:12;3.88;;;3.58;;
18893;SDS011;9579;49.488;8.226;2023-08-06T01:28:04;3.97;;;3.67;;
18893;SDS011;9579;49.488;8.226;2023-08-06T01:30:55;3.20;;;2.97;;
18893;SDS011;9579;49.488;8.226;2023-08-06T01:33:45;4.60;;;3.63;;
18893;SDS011;9579;49.488;8.226;2023-08-06T01:36:34;3.30;;;3.10;;
18893;SDS011;9579;49.488;8.226;2023-08-06T01:39:23;3.80;;;3.55;;
18893;SDS011;9579;49.488;8.226;2023-08-06T01:42:10;3.50;;;3.30;;
18893;SDS011;9579;49.488;8.226;2023-08-06T01:44:57;3.47;;;3.20;;
18893;SDS011;9579;49.488;8.226;2023-08-06T01:47:44;3.63;;;3.33;;
18893;SDS011;9579;49.488;8.226;2023-08-06T01:50:31;3.40;;;3.20;;
18893;SDS011;9579;49.488;8.226;2023-08-06T01:53:18;3.22;;;3.03;;
18893;SDS011;9579;49.488;8.226;2023-08-06T01:56:07;3.45;;;3.17;;
18893;SDS011;9579;49.488;8.226;2023-08-06T01:58:57;3.10;;;2.90;;
18893;SDS011;9579;49.488;8.226;2023-08-06T02:01:44;3.10;;;2.85;;
18893;SDS011;9579;49.488;8.226;2023-08-06T02:04:31;3.63;;;3.40;;
18893;SDS011;9579;49.488;8.226;2023-08-06T02:07:19;3.65;;;3.35;;
18893;SDS011;9579;49.488;8.226;2023-08-06T02:10:06;3.10;;;2.90;;
18893;SDS011;9579;49.488;8.226;2023-08-06T02:12:55;2.97;;;2.78;;
18893;SDS011;9579;49.488;8.226;2023-08-06T02:15:43;3.15;;;2.85;;
18893;SDS011;9579;49.488;8.226;2023-08-06T02:18:30;3.20;;;3.00;;
18893;SDS011;9579;49.488;8.226;2023-08-06T02:21:17;2.80;;;2.60;;
18893;SDS011;9579;49.488;8.226;2023-08-06T02:24:04;3.20;;;2.90;;
18893;SDS011;9579;49.488;8.226;2023-08-06T02:26:51;3.40;;;2.80;;
18893;SDS011;9579;49.488;8.226;2023-08-06T02:29:42;3.53;;;2.88;;
18893;SDS011;9579;49.488;8.226;2023-08-06T02:32:30;2.85;;;2.60;;
18893;SDS011;9579;49.488;8.226;2023-08-06T02:35:18;2.83;;;2.63;;
18893;SDS011;9579;49.488;8.226;2023-08-06T02:38:05;4.00;;;3.00;;
18893;SDS011;9579;49.488;8.226;2023-08-06T02:40:52;2.55;;;2.35;;
18893;SDS011;9579;49.488;8.226;2023-08-06T02:43:39;3.03;;;2.53;;
18893;SDS011;9579;49.488;8.226;2023-08-06T02:46:27;3.38;;;2.80;;
18893;SDS011;9579;49.488;8.226;2023-08-06T02:49:14;3.30;;;2.65;;
18893;SDS011;9579;49.488;8.226;2023-08-06T02:52:01;3.40;;;2.50;;
18893;SDS011;9579;49.488;8.226;2023-08-06T02:54:49;2.53;;;2.33;;
18893;SDS011;9579;49.488;8.226;2023-08-06T02:57:36;4.50;;;3.03;;
18893;SDS011;9579;49.488;8.226;2023-08-06T03:00:23;2.55;;;2.22;;
18893;SDS011;9579;49.488;8.226;2023-08-06T03:03:12;2.55;;;2.35;;
18893;SDS011;9579;49.488;8.226;2023-08-06T03:05:59;3.78;;;2.70;;
18893;SDS011;9579;49.488;8.226;2023-08-06T03:08:46;2.78;;;2.30;;
18893;SDS011;9579;49.488;8.226;2023-08-06T03:11:33;3.33;;;2.50;;
18893;SDS011;9579;49.488;8.226;2023-08-06T03:14:20;3.60;;;2.63;;
18893;SDS011;9579;49.488;8.226;2023-08-06T03:17:07;2.47;;;2.28;;
18893;SDS011;9579;49.488;8.226;2023-08-06T03:19:55;4.18;;;2.20;;
18893;SDS011;9579;49.488;8.226;2023-08-06T03:22:42;2.22;;;2.03;;
18893;SDS011;9579;49.488;8.226;2023-08-06T03:25:29;3.00;;;1.85;;
18893;SDS011;9579;49.488;8.226;2023-08-06T03:28:17;2.17;;;1.70;;
18893;SDS011;9579;49.488;8.226;2023-08-06T03:31:04;1.65;;;1.50;;
18893;SDS011;9579;49.488;8.226;2023-08-06T03:33:51;3.22;;;1.58;;
18893;SDS011;9579;49.488;8.226;2023-08-06T03:36:39;1.50;;;1.40;;
18893;SDS011;9579;49.488;8.226;2023-08-06T03:39:26;1.60;;;1.30;;
18893;SDS011;9579;49.488;8.226;2023-08-06T03:42:13;1.50;;;1.30;;
18893;SDS011;9579;49.488;8.226;2023-08-06T03:45:00;1.42;;;1.20;;
18893;SDS011;9579;49.488;8.226;2023-08-06T03:47:48;1.70;;;1.40;;
18893;SDS011;9579;49.488;8.226;2023-08-06T03:50:35;2.28;;;1.00;;
18893;SDS011;9579;49.488;8.226;2023-08-06T03:53:24;2.33;;;1.10;;
18893;SDS011;9579;49.488;8.226;2023-08-06T03:56:14;1.33;;;1.10;;
18893;SDS011;9579;49.488;8.226;2023-08-06T03:59:07;1.20;;;1.00;;
18893;SDS011;9579;49.488;8.226;2023-08-06T04:02:03;1.15;;;0.95;;
18893;SDS011;9579;49.488;8.226;2023-08-06T04:04:51;1.42;;;0.98;;
18893;SDS011;9579;49.488;8.226;2023-08-06T04:07:48;1.00;;;0.90;;
18893;SDS011;9579;49.488;8.226;2023-08-06T04:10:36;1.63;;;1.13;;
18893;SDS011;9579;49.488;8.226;2023-08-06T04:13:24;1.40;;;1.05;;
18893;SDS011;9579;49.488;8.226;2023-08-06T04:16:11;1.05;;;0.90;;
18893;SDS011;9579;49.488;8.226;2023-08-06T04:19:00;0.77;;;0.70;;
18893;SDS011;9579;49.488;8.226;2023-08-06T04:21:47;1.00;;;0.90;;
18893;SDS011;9579;49.488;8.226;2023-08-06T04:24:38;1.23;;;0.93;;
18893;SDS011;9579;49.488;8.226;2023-08-06T04:27:27;0.70;;;0.70;;
18893;SDS011;9579;49.488;8.226;2023-08-06T04:30:14;1.00;;;0.90;;
18893;SDS011;9579;49.488;8.226;2023-08-06T04:33:01;0.85;;;0.85;;
18893;SDS011;9579;49.488;8.226;2023-08-06T04:35:53;1.23;;;0.80;;
18893;SDS011;9579;49.488;8.226;2023-08-06T04:38:41;1.80;;;0.90;;
18893;SDS011;9579;49.488;8.226;2023-08-06T04:41:30;0.75;;;0.75;;
18893;SDS011;9579;49.488;8.226;2023-08-06T04:44:19;0.70;;;0.70;;
18893;SDS011;9579;49.488;8.226;2023-08-06T04:47:07;1.00;;;0.80;;
18893;SDS011;9579;49.488;8.226;2023-08-06T04:49:54;0.60;;;0.60;;
18893;SDS011;9579;49.488;8.226;2023-08-06T04:52:41;0.95;;;0.90;;
18893;SDS011;9579;49.488;8.226;2023-08-06T04:55:29;1.20;;;0.90;;
18893;SDS011;9579;49.488;8.226;2023-08-06T04:58:16;0.93;;;0.90;;
18893;SDS011;9579;49.488;8.226;2023-08-06T05:01:04;0.98;;;0.90;;
18893;SDS011;9579;49.488;8.226;2023-08-06T05:03:51;1.60;;;1.10;;
18893;SDS011;9579;49.488;8.226;2023-08-06T05:06:38;2.33;;;1.00;;
18893;SDS011;9579;49.488;8.226;2023-08-06T05:09:25;0.98;;;0.75;;
18893;SDS011;9579;49.488;8.226;2023-08-06T05:12:12;0.80;;;0.80;;
18893;SDS011;9579;49.488;8.226;2023-08-06T05:14:59;0.60;;;0.60;;
18893;SDS011;9579;49.488;8.226;2023-08-06T05:17:48;0.60;;;0.60;;
18893;SDS011;9579;49.488;8.226;2023-08-06T05:20:35;1.17;;;0.82;;
18893;SDS011;9579;49.488;8.226;2023-08-06T05:23:23;2.17;;;0.70;;
18893;SDS011;9579;49.488;8.226;2023-08-06T05:26:10;0.70;;;0.70;;
18893;SDS011;9579;49.488;8.226;2023-08-06T05:29:00;0.70;;;0.70;;
18893;SDS011;9579;49.488;8.226;2023-08-06T05:31:47;0.65;;;0.65;;
18893;SDS011;9579;49.488;8.226;2023-08-06T05:34:35;0.60;;;0.60;;
18893;SDS011;9579;49.488;8.226;2023-08-06T05:37:23;0.60;;;0.50;;
18893;SDS011;9579;49.488;8.226;2023-08-06T05:40:10;0.90;;;0.65;;
18893;SDS011;9579;49.488;8.226;2023-08-06T05:42:57;0.70;;;0.70;;
18893;SDS011;9579;49.488;8.226;2023-08-06T05:45:44;0.60;;;0.60;;
18893;SDS011;9579;49.488;8.226;2023-08-06T05:48:31;1.00;;;0.60;;
18893;SDS011;9579;49.488;8.226;2023-08-06T05:51:20;0.57;;;0.57;;
18893;SDS011;9579;49.488;8.226;2023-08-06T05:54:07;0.52;;;0.52;;
18893;SDS011;9579;49.488;8.226;2023-08-06T05:56:54;0.52;;;0.52;;
18893;SDS011;9579;49.488;8.226;2023-08-06T05:59:41;0.50;;;0.50;;
18893;SDS011;9579;49.488;8.226;2023-08-06T06:02:28;0.60;;;0.60;;
18893;SDS011;9579;49.488;8.226;2023-08-06T06:05:15;0.50;;;0.50;;
18893;SDS011;9579;49.488;8.226;2023-08-06T06:08:04;1.20;;;0.80;;
18893;SDS011;9579;49.488;8.226;2023-08-06T06:10:51;0.60;;;0.60;;
18893;SDS011;9579;49.488;8.226;2023-08-06T06:13:38;0.68;;;0.68;;
18893;SDS011;9579;49.488;8.226;2023-08-06T06:16:25;0.73;;;0.73;;
18893;SDS011;9579;49.488;8.226;2023-08-06T06:19:12;0.60;;;0.60;;
18893;SDS011;9579;49.488;8.226;2023-08-06T06:21:59;0.70;;;0.70;;
18893;SDS011;9579;49.488;8.226;2023-08-06T06:24:48;0.60;;;0.60;;
18893;SDS011;9579;49.488;8.226;2023-08-06T06:27:35;0.70;;;0.70;;
18893;SDS011;9579;49.488;8.226;2023-08-06T06:30:22;0.60;;;0.60;;
18893;SDS011;9579;49.488;8.226;2023-08-06T06:33:09;0.57;;;0.52;;
18893;SDS011;9579;49.488;8.226;2023-08-06T06:35:56;0.70;;;0.70;;
18893;SDS011;9579;49.488;8.226;2023-08-06T06:38:43;0.70;;;0.70;;
18893;SDS011;9579;49.488;8.226;2023-08-06T06:41:31;0.88;;;0.70;;
18893;SDS011;9579;49.488;8.226;2023-08-06T06:44:18;0.63;;;0.63;;
18893;SDS011;9579;49.488;8.226;2023-08-06T06:47:06;0.60;;;0.60;;
18893;SDS011;9579;49.488;8.226;2023-08-06T06:49:53;0.50;;;0.50;;
18893;SDS011;9579;49.488;8.226;2023-08-06T06:52:40;0.73;;;0.40;;
18893;SDS011;9579;49.488;8.226;2023-08-06T06:55:27;0.57;;;0.57;;
18893;SDS011;9579;49.488;8.226;2023-08-06T06:58:16;0.70;;;0.70;;
18893;SDS011;9579;49.488;8.226;2023-08-06T07:01:03;0.40;;;0.40;;
18893;SDS011;9579;49.488;8.226;2023-08-06T07:03:50;0.50;;;0.50;;
18893;SDS011;9579;49.488;8.226;2023-08-06T07:06:37;0.60;;;0.60;;
18893;SDS011;9579;49.488;8.226;2023-08-06T07:09:24;0.50;;;0.50;;
18893;SDS011;9579;49.488;8.226;2023-08-06T07:12:11;0.50;;;0.50;;
18893;SDS011;9579;49.488;8.226;2023-08-06T07:14:59;0.40;;;0.40;;
18893;SDS011;9579;49.488;8.226;2023-08-06T07:17:46;0.32;;;0.32;;
18893;SDS011;9579;49.488;8.226;2023-08-06T07:20:33;0.50;;;0.50;;
18893;SDS011;9579;49.488;8.226;2023-08-06T07:23:20;0.50;;;0.50;;
18893;SDS011;9579;49.488;8.226;2023-08-06T07:26:08;0.30;;;0.30;;
18893;SDS011;9579;49.488;8.226;2023-08-06T07:28:55;0.30;;;0.30;;
18893;SDS011;9579;49.488;8.226;2023-08-06T07:31:44;0.30;;;0.30;;
18893;SDS011;9579;49.488;8.226;2023-08-06T07:34:31;0.32;;;0.32;;
18893;SDS011;9579;49.488;8.226;2023-08-06T07:37:18;0.40;;;0.40;;
18893;SDS011;9579;49.488;8.226;2023-08-06T07:40:05;0.68;;;0.68;;
18893;SDS011;9579;49.488;8.226;2023-08-06T07:42:54;0.52;;;0.52;;
18893;SDS011;9579;49.488;8.226;2023-08-06T07:45:41;0.85;;;0.80;;
18893;SDS011;9579;49.488;8.226;2023-08-06T07:48:29;1.13;;;0.80;;
18893;SDS011;9579;49.488;8.226;2023-08-06T07:51:16;1.13;;;0.85;;
18893;SDS011;9579;49.488;8.226;2023-08-06T07:54:03;0.80;;;0.80;;
18893;SDS011;9579;49.488;8.226;2023-08-06T07:56:50;0.80;;;0.80;;
18893;SDS011;9579;49.488;8.226;2023-08-06T07:59:37;0.90;;;0.90;;
18893;SDS011;9579;49.488;8.226;2023-08-06T08:02:24;0.98;;;0.98;;
18893;SDS011;9579;49.488;8.226;2023-08-06T08:05:13;0.77;;;0.77;;
18893;SDS011;9579;49.488;8.226;2023-08-06T08:08:00;0.95;;;0.95;;
18893;SDS011;9579;49.488;8.226;2023-08-06T08:10:47;1.10;;;1.00;;
18893;SDS011;9579;49.488;8.226;2023-08-06T08:13:34;0.88;;;0.88;;
18893;SDS011;9579;49.488;8.226;2023-08-06T08:16:21;0.80;;;0.80;;
18893;SDS011;9579;49.488;8.226;2023-08-06T08:19:08;0.80;;;0.80;;
18893;SDS011;9579;49.488;8.226;2023-08-06T08:21:57;1.00;;;1.00;;
18893;SDS011;9579;49.488;8.226;2023-08-06T08:24:44;0.80;;;0.80;;
18893;SDS011;9579;49.488;8.226;2023-08-06T08:27:31;0.75;;;0.70;;
18893;SDS011;9579;49.488;8.226;2023-08-06T08:30:18;0.52;;;0.52;;
18893;SDS011;9579;49.488;8.226;2023-08-06T08:33:05;1.13;;;0.60;;
18893;SDS011;9579;49.488;8.226;2023-08-06T08:35:53;0.70;;;0.70;;
18893;SDS011;9579;49.488;8.226;2023-08-06T08:38:41;0.70;;;0.70;;
18893;SDS011;9579;49.488;8.226;2023-08-06T08:41:28;0.90;;;0.90;;
18893;SDS011;9579;49.488;8.226;2023-08-06T08:44:16;0.70;;;0.70;;
18893;SDS011;9579;49.488;8.226;2023-08-06T08:47:04;1.33;;;0.70;;
18893;SDS011;9579;49.488;8.226;2023-08-06T08:49:52;0.77;;;0.70;;
18893;SDS011;9579;49.488;8.226;2023-08-06T08:52:41;0.90;;;0.60;;
18893;SDS011;9579;49.488;8.226;2023-08-06T08:55:32;0.70;;;0.70;;
18893;SDS011;9579;49.488;8.226;2023-08-06T08:58:19;0.68;;;0.68;;
18893;SDS011;9579;49.488;8.226;2023-08-06T09:01:07;0.60;;;0.60;;
18893;SDS011;9579;49.488;8.226;2023-08-06T09:03:55;0.88;;;0.65;;
18893;SDS011;9579;49.488;8.226;2023-08-06T09:06:45;0.60;;;0.60;;
18893;SDS011;9579;49.488;8.226;2023-08-06T09:09:36;0.50;;;0.50;;
18893;SDS011;9579;49.488;8.226;2023-08-06T09:12:27;0.50;;;0.50;;
18893;SDS011;9579;49.488;8.226;2023-08-06T09:15:14;0.60;;;0.60;;
18893;SDS011;9579;49.488;8.226;2023-08-06T09:18:08;0.52;;;0.52;;
18893;SDS011;9579;49.488;8.226;2023-08-06T09:20:55;0.80;;;0.65;;
18893;SDS011;9579;49.488;8.226;2023-08-06T09:23:43;1.10;;;0.60;;
18893;SDS011;9579;49.488;8.226;2023-08-06T09:26:32;0.50;;;0.50;;
18893;SDS011;9579;49.488;8.226;2023-08-06T09:29:21;0.63;;;0.63;;
18893;SDS011;9579;49.488;8.226;2023-08-06T09:32:08;0.52;;;0.52;;
18893;SDS011;9579;49.488;8.226;2023-08-06T09:34:56;0.68;;;0.68;;
18893;SDS011;9579;49.488;8.226;2023-08-06T09:37:45;0.50;;;0.50;;
18893;SDS011;9579;49.488;8.226;2023-08-06T09:40:32;0.45;;;0.45;;
18893;SDS011;9579;49.488;8.226;2023-08-06T09:43:20;0.52;;;0.52;;
18893;SDS011;9579;49.488;8.226;2023-08-06T09:46:13;0.50;;;0.50;;
18893;SDS011;9579;49.488;8.226;2023-08-06T09:49:01;0.40;;;0.40;;
18893;SDS011;9579;49.488;8.226;2023-08-06T09:51:49;0.52;;;0.40;;
18893;SDS011;9579;49.488;8.226;2023-08-06T09:54:41;0.85;;;0.60;;
18893;SDS011;9579;49.488;8.226;2023-08-06T09:57:31;0.32;;;0.32;;
18893;SDS011;9579;49.488;8.226;2023-08-06T10:00:18;0.50;;;0.50;;
18893;SDS011;9579;49.488;8.226;2023-08-06T10:03:07;0.50;;;0.50;;
18893;SDS011;9579;49.488;8.226;2023-08-06T10:05:55;0.40;;;0.40;;
18893;SDS011;9579;49.488;8.226;2023-08-06T10:08:43;0.43;;;0.43;;
18893;SDS011;9579;49.488;8.226;2023-08-06T10:11:30;0.60;;;0.60;;
18893;SDS011;9579;49.488;8.226;2023-08-06T10:14:18;0.55;;;0.55;;
18893;SDS011;9579;49.488;8.226;2023-08-06T10:17:09;1.25;;;0.65;;
18893;SDS011;9579;49.488;8.226;2023-08-06T10:19:58;0.60;;;0.60;;
18893;SDS011;9579;49.488;8.226;2023-08-06T10:22:46;0.50;;;0.50;;
18893;SDS011;9579;49.488;8.226;2023-08-06T10:25:47;1.65;;;0.63;;
18893;SDS011;9579;49.488;8.226;2023-08-06T10:28:41;0.80;;;0.80;;
18893;SDS011;9579;49.488;8.226;2023-08-06T10:34:53;0.73;;;0.73;;
18893;SDS011;9579;49.488;8.226;2023-08-06T10:37:45;0.60;;;0.60;;
18893;SDS011;9579;49.488;8.226;2023-08-06T10:40:33;0.70;;;0.70;;
18893;SDS011;9579;49.488;8.226;2023-08-06T10:43:26;0.77;;;0.77;;
18893;SDS011;9579;49.488;8.226;2023-08-06T10:46:22;0.70;;;0.70;;
18893;SDS011;9579;49.488;8.226;2023-08-06T10:49:10;0.90;;;0.90;;
18893;SDS011;9579;49.488;8.226;2023-08-06T10:52:00;0.80;;;0.80;;
18893;SDS011;9579;49.488;8.226;2023-08-06T10:54:48;0.60;;;0.60;;
18893;SDS011;9579;49.488;8.226;2023-08-06T10:57:35;0.77;;;0.77;;
18893;SDS011;9579;49.488;8.226;2023-08-06T11:00:23;1.00;;;1.00;;
18893;SDS011;9579;49.488;8.226;2023-08-06T11:03:16;0.95;;;0.95;;
18893;SDS011;9579;49.488;8.226;2023-08-06T11:06:04;0.75;;;0.75;;
18893;SDS011;9579;49.488;8.226;2023-08-06T11:09:03;0.80;;;0.80;;
18893;SDS011;9579;49.488;8.226;2023-08-06T11:11:50;0.70;;;0.70;;
18893;SDS011;9579;49.488;8.226;2023-08-06T11:14:38;0.70;;;0.70;;
18893;SDS011;9579;49.488;8.226;2023-08-06T11:17:31;0.77;;;0.77;;
18893;SDS011;9579;49.488;8.226;2023-08-06T11:20:27;0.80;;;0.80;;
18893;SDS011;9579;49.488;8.226;2023-08-06T11:23:14;0.75;;;0.75;;
18893;SDS011;9579;49.488;8.226;2023-08-06T11:26:10;1.10;;;1.10;;
18893;SDS011;9579;49.488;8.226;2023-08-06T11:28:57;0.90;;;0.90;;
18893;SDS011;9579;49.488;8.226;2023-08-06T11:31:46;1.45;;;1.17;;
18893;SDS011;9579;49.488;8.226;2023-08-06T11:34:33;1.52;;;1.00;;
18893;SDS011;9579;49.488;8.226;2023-08-06T11:37:21;1.20;;;1.00;;
18893;SDS011;9579;49.488;8.226;2023-08-06T11:40:10;1.30;;;1.20;;
18893;SDS011;9579;49.488;8.226;2023-08-06T11:42:58;1.50;;;1.20;;
18893;SDS011;9579;49.488;8.226;2023-08-06T11:45:45;1.20;;;1.20;;
18893;SDS011;9579;49.488;8.226;2023-08-06T11:48:42;1.75;;;1.65;;
18893;SDS011;9579;49.488;8.226;2023-08-06T11:51:40;2.35;;;1.45;;
18893;SDS011;9579;49.488;8.226;2023-08-06T11:54:30;1.30;;;1.20;;
18893;SDS011;9579;49.488;8.226;2023-08-06T11:57:19;2.33;;;1.50;;
18893;SDS011;9579;49.488;8.226;2023-08-06T12:00:24;1.50;;;1.40;;
18893;SDS011;9579;49.488;8.226;2023-08-06T12:03:19;1.50;;;1.40;;
18893;SDS011;9579;49.488;8.226;2023-08-06T12:06:14;3.13;;;1.40;;
18893;SDS011;9579;49.488;8.226;2023-08-06T12:09:01;1.42;;;1.33;;
18893;SDS011;9579;49.488;8.226;2023-08-06T12:11:49;1.33;;;1.30;;
18893;SDS011;9579;49.488;8.226;2023-08-06T12:14:36;1.50;;;1.40;;
18893;SDS011;9579;49.488;8.226;2023-08-06T12:17:24;1.52;;;1.42;;
18893;SDS011;9579;49.488;8.226;2023-08-06T12:20:12;1.23;;;1.13;;
18893;SDS011;9579;49.488;8.226;2023-08-06T12:22:59;1.65;;;1.40;;
18893;SDS011;9579;49.488;8.226;2023-08-06T12:25:46;1.75;;;1.40;;
18893;SDS011;9579;49.488;8.226;2023-08-06T12:28:35;1.20;;;1.10;;
18893;SDS011;9579;49.488;8.226;2023-08-06T12:31:22;1.23;;;1.10;;
18893;SDS011;9579;49.488;8.226;2023-08-06T12:34:10;3.42;;;1.33;;
18893;SDS011;9579;49.488;8.226;2023-08-06T12:36:57;1.27;;;1.20;;
18893;SDS011;9579;49.488;8.226;2023-08-06T12:39:44;1.30;;;1.20;;
18893;SDS011;9579;49.488;8.226;2023-08-06T12:42:33;1.52;;;1.10;;
18893;SDS011;9579;49.488;8.226;2023-08-06T12:45:20;1.10;;;0.98;;
18893;SDS011;9579;49.488;8.226;2023-08-06T12:48:08;1.52;;;1.20;;
18893;SDS011;9579;49.488;8.226;2023-08-06T12:50:59;0.90;;;0.90;;
18893;SDS011;9579;49.488;8.226;2023-08-06T12:53:48;1.35;;;1.00;;
18893;SDS011;9579;49.488;8.226;2023-08-06T12:56:35;1.13;;;1.02;;
18893;SDS011;9579;49.488;8.226;2023-08-06T12:59:22;2.13;;;1.00;;
18893;SDS011;9579;49.488;8.226;2023-08-06T13:02:09;1.10;;;1.10;;
18893;SDS011;9579;49.488;8.226;2023-08-06T13:04:56;1.10;;;1.00;;
18893;SDS011;9579;49.488;8.226;2023-08-06T13:07:45;1.15;;;1.02;;
18893;SDS011;9579;49.488;8.226;2023-08-06T13:10:32;1.73;;;1.10;;
18893;SDS011;9579;49.488;8.226;2023-08-06T13:13:19;1.30;;;1.20;;
18893;SDS011;9579;49.488;8.226;2023-08-06T13:16:11;1.10;;;1.10;;
18893;SDS011;9579;49.488;8.226;2023-08-06T13:19:07;1.08;;;1.00;;
18893;SDS011;9579;49.488;8.226;2023-08-06T13:22:01;1.13;;;1.02;;
18893;SDS011;9579;49.488;8.226;2023-08-06T13:24:53;1.00;;;1.00;;
18893;SDS011;9579;49.488;8.226;2023-08-06T13:27:41;1.42;;;0.90;;
18893;SDS011;9579;49.488;8.226;2023-08-06T13:30:31;0.95;;;0.95;;
18893;SDS011;9579;49.488;8.226;2023-08-06T13:33:20;0.80;;;0.80;;
18893;SDS011;9579;49.488;8.226;2023-08-06T13:36:07;1.00;;;1.00;;
18893;SDS011;9579;49.488;8.226;2023-08-06T13:38:54;1.25;;;1.20;;
18893;SDS011;9579;49.488;8.226;2023-08-06T13:41:42;1.30;;;1.17;;
18893;SDS011;9579;49.488;8.226;2023-08-06T13:44:30;1.40;;;0.90;;
18893;SDS011;9579;49.488;8.226;2023-08-06T13:47:21;1.17;;;1.08;;
18893;SDS011;9579;49.488;8.226;2023-08-06T13:50:08;1.27;;;1.17;;
18893;SDS011;9579;49.488;8.226;2023-08-06T13:52:55;1.10;;;1.10;;
18893;SDS011;9579;49.488;8.226;2023-08-06T13:55:42;1.33;;;1.05;;
18893;SDS011;9579;49.488;8.226;2023-08-06T13:58:31;1.48;;;1.35;;
18893;SDS011;9579;49.488;8.226;2023-08-06T14:01:20;1.00;;;1.00;;
18893;SDS011;9579;49.488;8.226;2023-08-06T14:04:08;1.15;;;1.05;;
18893;SDS011;9579;49.488;8.226;2023-08-06T14:06:55;1.55;;;1.25;;
18893;SDS011;9579;49.488;8.226;2023-08-06T14:09:42;1.85;;;1.10;;
18893;SDS011;9579;49.488;8.226;2023-08-06T14:12:29;1.52;;;1.38;;
18893;SDS011;9579;49.488;8.226;2023-08-06T14:15:18;1.05;;;0.95;;
18893;SDS011;9579;49.488;8.226;2023-08-06T14:18:06;1.10;;;1.10;;
18893;SDS011;9579;49.488;8.226;2023-08-06T14:20:54;1.00;;;1.00;;
18893;SDS011;9579;49.488;8.226;2023-08-06T14:23:41;0.95;;;0.95;;
18893;SDS011;9579;49.488;8.226;2023-08-06T14:26:28;1.20;;;1.10;;
18893;SDS011;9579;49.488;8.226;2023-08-06T14:29:15;1.55;;;1.30;;
18893;SDS011;9579;49.488;8.226;2023-08-06T14:32:04;1.63;;;1.27;;
18893;SDS011;9579;49.488;8.226;2023-08-06T14:34:52;1.08;;;1.08;;
18893;SDS011;9579;49.488;8.226;2023-08-06T14:37:39;1.63;;;1.17;;
18893;SDS011;9579;49.488;8.226;2023-08-06T14:40:26;1.58;;;1.23;;
18893;SDS011;9579;49.488;8.226;2023-08-06T14:43:18;1.70;;;1.05;;
18893;SDS011;9579;49.488;8.226;2023-08-06T14:46:06;1.20;;;1.10;;
18893;SDS011;9579;49.488;8.226;2023-08-06T14:48:58;1.30;;;1.17;;
18893;SDS011;9579;49.488;8.226;2023-08-06T14:51:46;2.92;;;1.23;;
18893;SDS011;9579;49.488;8.226;2023-08-06T14:54:35;2.40;;;1.38;;
18893;SDS011;9579;49.488;8.226;2023-08-06T14:57:22;1.27;;;1.17;;
18893;SDS011;9579;49.488;8.226;2023-08-06T15:00:13;1.30;;;1.20;;
18893;SDS011;9579;49.488;8.226;2023-08-06T15:03:03;1.20;;;1.10;;
18893;SDS011;9579;49.488;8.226;2023-08-06T15:05:52;1.10;;;1.00;;
18893;SDS011;9579;49.488;8.226;2023-08-06T15:08:39;1.20;;;1.10;;
18893;SDS011;9579;49.488;8.226;2023-08-06T15:11:29;0.90;;;0.90;;
18893;SDS011;9579;49.488;8.226;2023-08-06T15:14:16;1.25;;;1.15;;
18893;SDS011;9579;49.488;8.226;2023-08-06T15:17:13;1.08;;;1.08;;
18893;SDS011;9579;49.488;8.226;2023-08-06T15:20:00;1.13;;;1.08;;
18893;SDS011;9579;49.488;8.226;2023-08-06T15:22:48;1.40;;;1.30;;
18893;SDS011;9579;49.488;8.226;2023-08-06T15:25:35;1.40;;;1.30;;
18893;SDS011;9579;49.488;8.226;2023-08-06T15:28:22;1.30;;;1.20;;
18893;SDS011;9579;49.488;8.226;2023-08-06T15:31:09;1.25;;;1.15;;
18893;SDS011;9579;49.488;8.226;2023-08-06T15:33:56;1.00;;;1.00;;
18893;SDS011;9579;49.488;8.226;2023-08-06T15:36:44;1.00;;;1.00;;
18893;SDS011;9579;49.488;8.226;2023-08-06T15:39:35;1.35;;;1.00;;
18893;SDS011;9579;49.488;8.226;2023-08-06T15:42:22;1.13;;;1.10;;
18893;SDS011;9579;49.488;8.226;2023-08-06T15:45:13;1.33;;;1.23;;
18893;SDS011;9579;49.488;8.226;2023-08-06T15:48:00;1.05;;;1.05;;
18893;SDS011;9579;49.488;8.226;2023-08-06T15:50:47;1.00;;;1.00;;
18893;SDS011;9579;49.488;8.226;2023-08-06T15:53:34;0.90;;;0.90;;
18893;SDS011;9579;49.488;8.226;2023-08-06T15:56:22;0.90;;;0.90;;
18893;SDS011;9579;49.488;8.226;2023-08-06T15:59:25;1.40;;;1.00;;
18893;SDS011;9579;49.488;8.226;2023-08-06T16:02:13;1.35;;;1.20;;
18893;SDS011;9579;49.488;8.226;2023-08-06T16:05:01;1.50;;;1.10;;
18893;SDS011;9579;49.488;8.226;2023-08-06T16:07:49;2.38;;;1.40;;
18893;SDS011;9579;49.488;8.226;2023-08-06T16:10:36;1.40;;;1.30;;
18893;SDS011;9579;49.488;8.226;2023-08-06T16:13:24;1.55;;;1.20;;
18893;SDS011;9579;49.488;8.226;2023-08-06T16:16:11;1.85;;;1.10;;
18893;SDS011;9579;49.488;8.226;2023-08-06T16:18:58;1.30;;;1.20;;
18893;SDS011;9579;49.488;8.226;2023-08-06T16:21:45;1.50;;;1.40;;
18893;SDS011;9579;49.488;8.226;2023-08-06T16:24:32;2.15;;;1.30;;
18893;SDS011;9579;49.488;8.226;2023-08-06T16:27:19;1.45;;;1.30;;
18893;SDS011;9579;49.488;8.226;2023-08-06T16:36:34;2.15;;;1.50;;
18893;SDS011;9579;49.488;8.226;2023-08-06T16:39:21;1.40;;;1.17;;
18893;SDS011;9579;49.488;8.226;2023-08-06T16:42:11;1.75;;;1.40;;
18893;SDS011;9579;49.488;8.226;2023-08-06T16:44:59;1.50;;;1.40;;
18893;SDS011;9579;49.488;8.226;2023-08-06T16:47:48;1.98;;;1.20;;
18893;SDS011;9579;49.488;8.226;2023-08-06T16:50:45;1.20;;;1.10;;
18893;SDS011;9579;49.488;8.226;2023-08-06T16:53:37;1.40;;;1.20;;
18893;SDS011;9579;49.488;8.226;2023-08-06T16:56:25;1.25;;;1.10;;
18893;SDS011;9579;49.488;8.226;2023-08-06T16:59:13;1.10;;;1.10;;
18893;SDS011;9579;49.488;8.226;2023-08-06T17:02:01;1.83;;;1.30;;
18893;SDS011;9579;49.488;8.226;2023-08-06T17:04:48;2.80;;;1.38;;
18893;SDS011;9579;49.488;8.226;2023-08-06T17:07:35;1.40;;;1.23;;
18893;SDS011;9579;49.488;8.226;2023-08-06T17:10:24;1.40;;;1.30;;
18893;SDS011;9579;49.488;8.226;2023-08-06T17:13:13;2.35;;;1.30;;
18893;SDS011;9579;49.488;8.226;2023-08-06T17:16:03;1.30;;;1.30;;
18893;SDS011;9579;49.488;8.226;2023-08-06T17:19:02;1.30;;;1.20;;